Terminal Aerodrome Forecast
Issued by NWS

Home | Current Version | Previous Version | Text Only | Print | Product List | Glossary On
Versions: 1 2 3 4 5 6 7 8 9 10 11 12 13 14 15
000
FTUS46 KSEW 270500
TAFPAE
TAF
KPAE 270532Z 2706/2806 14003KT P6SM OVC008
      TEMPO 2710/2712 3SM -RA BR OVC005
     FM271200 17010KT P6SM -RA OVC011
      TEMPO 2714/2718 2SM -RA BR OVC005
     FM271800 19012G18KT 4SM -RA BR SCT008 OVC016
     FM280000 30008KT P6SM -SHRA SCT013 BKN023 OVC035=

USA.gov is the U.S. government's official web portal to all federal, state and local government web resources and services.